Port Angeles, WA (98363)

1:44 AM PDT on September 20, 2014 (GMT -0700)
Lincoln High School | Change Station
CLOSE
Current Station
Personal Weather Station
Location: Port Angeles, WA
Elevation: 200 ft
Nearby Weather Stations

Elev 200 ft 48.12 °N, 123.46 °W | Updated 10 minutes ago

Overcast
Overcast
56.5 °F
Feels Like 56.5 °F
N
2.0
Wind Variable Wind from SW
Gusts 3.0 mph

Today
High -- | Low -- °F
--% Chance of Precip.
Yesterday
High -- | Low -- °F
Precip. -- in
6:57 AM 7:15 PM
Waning Crescent, 13% visible
Pressure 30.15 in
Visibility 10.0 miles
Clouds Overcast 4400 ft
Dew Point 55 °F
Humidity 93%
Rainfall 0.01 in
Snow Depth Not available.
UV 0.0 out of 12
Pollen .70 out of 12
Air Quality Not available.
Flu Activity Not available.
METAR KCLM 200753Z AUTO 23003KT 10SM OVC044 13/12 A3015 RMK AO2 SLP209 T01280117 402060122 $

More Conditions Fewer Conditions

Pressure 30.15 in
Visibility 10.0 miles
Clouds Overcast 4400 ft
Dew Point 55 °F
Humidity 93%
Rainfall 0.01 in
Snow Depth Not available.
UV 0.0 out of 12
Pollen .70 out of 12
Air Quality Not available.
Flu Activity Not available.
METAR KCLM 200753Z AUTO 23003KT 10SM OVC044 13/12 A3015 RMK AO2 SLP209 T01280117 402060122 $

More Conditions Fewer Conditions

10-Day Weather Forecast

Almanac

Astronomy

Sep. 20, 2014 Rise Set
Actual Time 6:57 AM PDT 7:15 PM PDT
Civil Twilight 6:26 AM PDT 7:46 PM PDT
Nautical Twilight 5:50 AM PDT 8:23 PM PDT
Astronomical Twilight 5:11 AM PDT 9:01 PM PDT
Moon 3:30 AM PDT 5:32 PM PDT
Length of Visible Light 13h 19m
Length of Day
12h 17m
Tomorrow will be 3m 28s shorter.
Waning Crescent, 13% of the Moon is Illuminated
Today
Waning Crescent
Sep 24
New
Oct 1
First Quarter
Oct 8
Full
Oct 15
Last Quarter

Today's Extremes

State Highs State Lows

Community

WunderPhotos

Upload Photos

1,754,793 photos uploaded!

WunderBlogs® & News

Nearby

Snow Depth

Station Depth Elevation
Blewett Pass 0 in 4270 ft
Mount Crag 0 in 4050 ft
Sourdough Gulch 0 in 4000 ft
Green Lake 0 in 6000 ft
Bunchgrass Meadow 0 in 5000 ft

Earthquake Activity

City Distance Mag. Time & Date
Seabeck, Washington 44 miles 4.0 3:06 AM PDT
2014-09-17
Minimum magnitude displayed is 2.5.

Coastal Water Temperatures

Place Temperature
Port Angeles, WA 53.1 °F
Friday Harbor, WA 52.0 °F
Port Townsend, WA 53.1 °F
La Push, WA 60.1 °F

Nearby Weather Stations